createdAt,value
2019-03-29T00:00:46.022Z,51.90
2019-03-29T00:03:12.525Z,54.03
2019-03-29T00:05:46.015Z,50.60
2019-03-29T00:08:15.510Z,51.43
2019-03-29T00:10:41.795Z,49.47
2019-03-29T00:13:14.354Z,54.50
2019-03-29T00:15:42.476Z,50.45
2019-03-29T00:18:10.003Z,46.80
2019-03-29T00:20:37.616Z,53.80
2019-03-29T00:23:13.848Z,54.97
2019-03-29T00:25:46.335Z,59.77
2019-03-29T00:28:23.012Z,51.90
2019-03-29T00:30:52.372Z,48.13
2019-03-29T00:33:32.419Z,48.97
2019-03-29T00:35:59.889Z,57.50
2019-03-29T00:38:29.393Z,59.47
2019-03-29T00:44:24.529Z,54.27
2019-03-29T00:46:53.914Z,52.27
2019-03-29T00:49:23.385Z,48.30
2019-03-29T00:51:50.941Z,60.23
2019-03-29T00:54:35.911Z,60.17
2019-03-29T00:57:08.547Z,68.63
2019-03-29T00:59:43.945Z,65.27
2019-03-29T01:02:19.406Z,65.00
2019-03-29T01:04:55.011Z,59.40
2019-03-29T01:07:22.688Z,58.07
2019-03-29T01:09:57.324Z,61.63
2019-03-29T01:12:26.763Z,59.77
2019-03-29T01:14:59.072Z,53.43
2019-03-29T01:17:45.760Z,48.10
2019-03-29T01:20:15.398Z,59.57
2019-03-29T01:22:53.979Z,56.37
2019-03-29T01:25:26.292Z,49.40
2019-03-29T01:27:52.726Z,51.23
2019-03-29T01:30:22.339Z,55.60
2019-03-29T01:33:08.734Z,53.27
2019-03-29T01:35:37.122Z,56.87
2019-03-29T01:38:06.612Z,49.83
2019-03-29T01:40:45.139Z,46.33
2019-03-29T01:43:14.713Z,53.97
2019-03-29T01:45:47.224Z,51.43
2019-03-29T01:48:24.347Z,51.83
2019-03-29T01:50:56.675Z,56.33
2019-03-29T01:53:41.478Z,51.63
2019-03-29T01:56:08.836Z,55.23
2019-03-29T01:58:41.307Z,53.93
2019-03-29T02:01:18.183Z,49.10
2019-03-29T02:03:47.907Z,51.77
2019-03-29T02:06:20.135Z,55.63
2019-03-29T02:08:46.619Z,50.53
2019-03-29T02:11:18.742Z,57.43
2019-03-29T02:13:56.165Z,54.60
2019-03-29T02:16:25.676Z,47.83
2019-03-29T02:18:54.057Z,47.83
2019-03-29T02:21:22.916Z,52.40
2019-03-29T02:24:30.777Z,53.97
2019-03-29T02:27:04.028Z,46.70
2019-03-29T02:29:41.259Z,46.43
2019-03-29T02:32:15.042Z,49.53
2019-03-29T02:35:11.466Z,56.30
2019-03-29T02:37:44.072Z,66.10
2019-03-29T02:40:51.450Z,69.23
2019-03-29T02:44:04.573Z,59.60
2019-03-29T02:46:33.905Z,53.80
2019-03-29T02:49:06.395Z,50.37
2019-03-29T02:51:38.940Z,50.23
2019-03-29T02:54:23.396Z,47.63
2019-03-29T02:56:49.727Z,49.70
2019-03-29T02:59:30.475Z,50.53
2019-03-29T03:01:57.033Z,47.23
2019-03-29T03:04:26.454Z,51.27
2019-03-29T03:06:55.962Z,53.23
2019-03-29T03:09:22.450Z,52.27
2019-03-29T03:11:51.806Z,48.93
2019-03-29T03:14:33.530Z,53.77
2019-03-29T03:17:03.073Z,58.15
2019-03-29T03:19:35.752Z,54.10
2019-03-29T03:22:29.165Z,59.37
2019-03-29T03:25:01.679Z,60.53
2019-03-29T03:27:35.588Z,48.93
2019-03-29T03:30:09.540Z,45.73
2019-03-29T03:32:37.909Z,48.10
2019-03-29T03:35:07.478Z,49.80
2019-03-29T03:37:41.749Z,69.33
2019-03-29T03:40:11.186Z,61.13
2019-03-29T03:42:39.668Z,49.77
2019-03-29T03:45:13.953Z,47.33
2019-03-29T03:48:06.124Z,61.03
2019-03-29T03:53:25.878Z,46.80
2019-03-29T03:55:55.312Z,49.20
2019-03-29T03:58:24.869Z,45.30
2019-03-29T04:00:54.580Z,54.63
2019-03-29T04:03:24.108Z,58.07
2019-03-29T04:06:02.526Z,56.00
2019-03-29T04:08:31.945Z,53.57
2019-03-29T04:11:01.404Z,54.23
2019-03-29T04:13:44.780Z,51.97
2019-03-29T04:16:11.048Z,45.70
2019-03-29T04:18:52.447Z,49.43
2019-03-29T04:21:23.149Z,41.45
2019-03-29T04:24:19.114Z,43.37
2019-03-29T04:26:58.409Z,45.40
2019-03-29T04:29:25.259Z,40.43
2019-03-29T04:31:58.450Z,41.83
2019-03-29T04:34:36.359Z,37.40
2019-03-29T04:37:08.753Z,37.63
2019-03-29T04:39:38.239Z,42.93
2019-03-29T04:42:17.610Z,38.57
2019-03-29T04:44:47.056Z,40.97
2019-03-29T04:47:16.400Z,46.97
2019-03-29T04:49:42.867Z,45.17
2019-03-29T04:52:15.032Z,43.67
2019-03-29T04:54:44.566Z,42.63
2019-03-29T04:57:13.996Z,40.60
2019-03-29T04:59:43.340Z,41.87
2019-03-29T05:02:27.160Z,46.20
2019-03-29T05:04:55.467Z,40.87
2019-03-29T05:07:36.871Z,43.33
2019-03-29T05:10:22.019Z,35.23
2019-03-29T05:12:51.523Z,33.80
2019-03-29T05:15:31.002Z,42.43
2019-03-29T05:18:00.353Z,50.33
2019-03-29T05:23:55.304Z,41.10
2019-03-29T05:26:29.806Z,40.50
2019-03-29T05:29:02.233Z,45.17
2019-03-29T05:31:38.955Z,41.13
2019-03-29T05:34:20.385Z,45.67
2019-03-29T05:36:46.801Z,42.35
2019-03-29T05:39:26.432Z,43.13
2019-03-29T05:42:05.066Z,44.23
2019-03-29T05:44:34.542Z,46.17
2019-03-29T05:47:03.989Z,40.33
2019-03-29T05:49:49.003Z,45.33
2019-03-29T05:52:21.223Z,43.70
2019-03-29T05:54:53.696Z,40.47
2019-03-29T05:57:26.395Z,46.43
2019-03-29T06:00:06.292Z,42.47
2019-03-29T06:02:36.661Z,42.63
2019-03-29T06:05:06.155Z,40.70
2019-03-29T06:07:38.255Z,47.30
2019-03-29T06:10:04.987Z,47.53
2019-03-29T06:12:33.407Z,39.17
2019-03-29T06:15:03.673Z,38.87
2019-03-29T06:18:01.062Z,32.33
2019-03-29T06:20:30.687Z,38.40
2019-03-29T06:23:11.105Z,34.57
2019-03-29T06:25:48.724Z,36.73
2019-03-29T06:28:18.135Z,30.37
2019-03-29T06:30:47.632Z,28.60
2019-03-29T06:33:23.754Z,28.47
2019-03-29T06:36:05.490Z,25.50
2019-03-29T06:38:34.935Z,27.73
2019-03-29T06:41:04.465Z,27.60
2019-03-29T06:43:36.753Z,27.95
2019-03-29T06:46:03.005Z,29.15
2019-03-29T06:48:50.844Z,26.20
2019-03-29T06:51:27.099Z,29.90
2019-03-29T06:53:56.501Z,37.15
2019-03-29T06:56:28.924Z,35.20
2019-03-29T06:59:14.415Z,36.90
2019-03-29T07:01:47.623Z,35.38
2019-03-29T07:04:18.101Z,38.58
2019-03-29T07:06:57.100Z,41.73
2019-03-29T07:09:26.558Z,42.85
2019-03-29T07:11:55.966Z,42.25
2019-03-29T07:14:23.377Z,44.58
2019-03-29T07:16:50.692Z,51.20
2019-03-29T07:19:23.085Z,52.03
2019-03-29T07:21:52.420Z,51.13
2019-03-29T07:24:21.956Z,53.92
2019-03-29T07:26:51.386Z,49.75
2019-03-29T07:29:17.947Z,54.90
2019-03-29T07:31:47.291Z,55.12
2019-03-29T07:34:14.760Z,48.10
2019-03-29T07:36:44.237Z,53.42
2019-03-29T07:39:16.689Z,58.52
2019-03-29T07:41:43.013Z,58.68
2019-03-29T07:44:31.982Z,62.27
2019-03-29T07:46:58.288Z,60.60
2019-03-29T07:49:27.655Z,62.98
2019-03-29T07:52:12.569Z,63.73
2019-03-29T07:55:06.119Z,64.35
2019-03-29T07:58:07.513Z,58.80
2019-03-29T08:00:30.195Z,64.05
2019-03-29T08:03:00.896Z,70.95
2019-03-29T08:05:29.066Z,62.93
2019-03-29T08:08:00.556Z,66.12
2019-03-29T08:13:03.237Z,65.55
2019-03-29T08:15:29.726Z,63.75
2019-03-29T08:18:21.131Z,59.70
2019-03-29T08:20:47.547Z,59.30
2019-03-29T08:23:19.669Z,61.95
2019-03-29T08:25:53.249Z,59.58
2019-03-29T08:28:25.865Z,58.42
2019-03-29T08:30:58.458Z,62.45
2019-03-29T08:33:30.892Z,60.35
2019-03-29T08:36:00.333Z,64.92
2019-03-29T08:38:32.715Z,57.38
2019-03-29T08:41:04.919Z,57.60
2019-03-29T08:43:58.238Z,59.00
2019-03-29T08:46:31.549Z,57.30
2019-03-29T08:49:08.829Z,57.30
2019-03-29T08:51:41.321Z,57.88
2019-03-29T08:54:09.857Z,57.00
2019-03-29T08:56:37.303Z,63.17
2019-03-29T08:59:06.300Z,59.27
2019-03-29T09:01:51.163Z,55.12
2019-03-29T09:04:27.206Z,54.83
2019-03-29T09:06:55.535Z,56.73
2019-03-29T09:09:41.987Z,57.90
2019-03-29T09:12:14.657Z,56.48
2019-03-29T09:14:58.970Z,50.50
2019-03-29T09:17:28.531Z,53.38
2019-03-29T09:19:56.959Z,50.58
2019-03-29T09:22:23.236Z,46.83
2019-03-29T09:24:49.612Z,47.98
2019-03-29T09:27:50.484Z,46.00
2019-03-29T09:30:24.227Z,44.47
2019-03-29T09:32:58.707Z,42.53
2019-03-29T09:35:31.109Z,42.67
2019-03-29T09:38:01.852Z,31.48
2019-03-29T09:40:31.246Z,32.73
2019-03-29T09:43:08.588Z,34.90
2019-03-29T09:45:37.178Z,37.40
2019-03-29T09:48:03.492Z,36.05
2019-03-29T09:50:33.616Z,36.75
2019-03-29T09:53:01.482Z,37.65
2019-03-29T09:55:28.036Z,37.45
2019-03-29T09:57:54.394Z,37.55
2019-03-29T10:00:23.362Z,37.63
2019-03-29T10:02:48.846Z,36.45
2019-03-29T10:05:15.254Z,33.85
2019-03-29T10:07:41.614Z,35.85
2019-03-29T10:10:07.947Z,34.60
2019-03-29T10:12:43.453Z,32.23
2019-03-29T10:15:02.850Z,32.78
2019-03-29T10:17:35.225Z,31.57
2019-03-29T10:20:02.165Z,31.30
2019-03-29T10:22:28.527Z,33.48
2019-03-29T10:24:57.915Z,33.28
2019-03-29T10:27:24.229Z,33.42
2019-03-29T10:29:50.557Z,32.75
2019-03-29T10:32:16.954Z,32.45
2019-03-29T10:34:43.251Z,31.85
2019-03-29T10:37:09.624Z,33.42
2019-03-29T10:39:36.077Z,31.37
2019-03-29T10:42:02.430Z,30.65
2019-03-29T10:44:28.746Z,30.50
2019-03-29T10:46:55.200Z,30.12
2019-03-29T10:49:21.687Z,30.27
2019-03-29T10:51:50.971Z,29.00
2019-03-29T10:54:18.278Z,28.47
2019-03-29T10:56:44.658Z,26.17
2019-03-29T10:59:26.756Z,24.67
2019-03-29T11:01:42.175Z,21.17
2019-03-29T11:04:08.579Z,24.87
2019-03-29T11:06:37.927Z,26.37
2019-03-29T11:09:06.715Z,21.30
2019-03-29T11:11:35.078Z,17.60
2019-03-29T11:14:01.803Z,19.07
2019-03-29T11:16:28.163Z,18.10
2019-03-29T11:18:54.408Z,17.05
2019-03-29T11:21:26.531Z,15.25
2019-03-29T11:23:52.966Z,15.25
2019-03-29T11:26:19.318Z,15.48
2019-03-29T11:28:48.636Z,20.05
2019-03-29T11:31:15.058Z,18.23
2019-03-29T11:33:41.443Z,19.55
2019-03-29T11:36:07.821Z,19.57
2019-03-29T11:38:40.158Z,17.90
2019-03-29T11:41:06.432Z,22.77
2019-03-29T11:43:34.941Z,17.62
2019-03-29T11:46:01.298Z,16.30
2019-03-29T11:48:29.549Z,14.13
2019-03-29T11:50:55.731Z,12.85
2019-03-29T11:53:22.000Z,14.00
2019-03-29T11:55:48.600Z,14.87
2019-03-29T11:58:14.953Z,14.78
2019-03-29T12:00:41.359Z,19.07
2019-03-29T12:03:09.343Z,16.67
2019-03-29T12:05:36.434Z,17.80
2019-03-29T12:08:03.437Z,17.85
2019-03-29T12:10:29.741Z,19.40
2019-03-29T12:12:56.091Z,17.45
2019-03-29T12:15:22.528Z,14.40
2019-03-29T12:17:48.822Z,16.12
2019-03-29T12:20:25.143Z,15.58
2019-03-29T12:22:51.867Z,16.25
2019-03-29T12:25:18.508Z,15.85
2019-03-29T12:27:44.887Z,18.23
2019-03-29T12:30:30.467Z,21.37
2019-03-29T12:32:45.298Z,17.92
2019-03-29T12:35:11.587Z,18.90
2019-03-29T12:37:37.972Z,18.57
2019-03-29T12:40:05.258Z,18.20
2019-03-29T12:42:31.746Z,15.20
2019-03-29T12:44:58.006Z,17.55
2019-03-29T12:47:24.412Z,14.53
2019-03-29T12:49:50.803Z,16.77
2019-03-29T12:52:17.134Z,16.50
2019-03-29T12:54:43.494Z,15.60
2019-03-29T12:57:09.913Z,17.35
2019-03-29T12:59:36.194Z,13.38
2019-03-29T13:02:02.565Z,12.65
2019-03-29T13:04:28.828Z,13.65
2019-03-29T13:06:55.124Z,15.78
2019-03-29T13:09:21.475Z,12.85
2019-03-29T13:11:47.786Z,14.00
2019-03-29T13:14:14.125Z,11.53
2019-03-29T13:16:40.478Z,12.43
2019-03-29T13:19:06.802Z,11.22
2019-03-29T13:21:33.436Z,13.20
2019-03-29T13:23:59.782Z,11.12
2019-03-29T13:26:26.058Z,13.53
2019-03-29T13:28:52.340Z,14.85
2019-03-29T13:31:18.668Z,11.53
2019-03-29T13:33:44.914Z,15.40
2019-03-29T13:36:11.459Z,10.88
2019-03-29T13:38:37.846Z,13.00
2019-03-29T13:41:06.892Z,13.30
2019-03-29T13:43:32.307Z,14.47
2019-03-29T13:45:59.754Z,12.30
2019-03-29T13:48:27.347Z,11.40
2019-03-29T13:50:54.642Z,11.93
2019-03-29T13:53:21.100Z,13.28
2019-03-29T13:55:47.376Z,12.68
2019-03-29T13:58:13.772Z,13.93
2019-03-29T14:00:40.296Z,11.20
2019-03-29T14:03:06.546Z,13.35
2019-03-29T14:05:32.899Z,12.05
2019-03-29T14:08:01.755Z,13.60
2019-03-29T14:10:28.669Z,13.38
2019-03-29T14:12:54.953Z,16.32
2019-03-29T14:15:21.238Z,15.53
2019-03-29T14:17:47.575Z,12.63
2019-03-29T14:20:17.782Z,14.65
2019-03-29T14:22:44.087Z,15.68
2019-03-29T14:25:10.362Z,12.50
2019-03-29T14:27:36.628Z,11.75
2019-03-29T14:30:05.493Z,12.63
2019-03-29T14:32:32.047Z,14.15
2019-03-29T14:34:58.436Z,14.98
2019-03-29T14:37:24.740Z,14.18
2019-03-29T14:39:51.203Z,15.45
2019-03-29T14:42:17.564Z,14.40
2019-03-29T14:44:52.882Z,12.50
2019-03-29T14:47:19.089Z,11.73
2019-03-29T14:49:45.361Z,15.95
2019-03-29T14:52:11.676Z,12.93
2019-03-29T14:54:38.097Z,17.05
2019-03-29T14:57:05.679Z,16.97
2019-03-29T14:59:32.065Z,14.93
2019-03-29T15:02:08.223Z,15.68
2019-03-29T15:04:34.798Z,15.08
2019-03-29T15:07:06.708Z,14.78
2019-03-29T15:09:33.692Z,14.40
2019-03-29T15:12:00.253Z,15.85
2019-03-29T15:14:27.994Z,14.83
2019-03-29T15:17:01.659Z,13.75
2019-03-29T15:19:28.611Z,17.48
2019-03-29T15:21:55.843Z,17.07
2019-03-29T15:24:22.611Z,13.98
2019-03-29T15:26:49.610Z,15.63
2019-03-29T15:29:24.273Z,16.77
2019-03-29T15:31:59.569Z,15.00
2019-03-29T15:34:26.518Z,14.45
2019-03-29T15:36:52.841Z,13.93
2019-03-29T15:39:21.130Z,16.23
2019-03-29T15:41:50.468Z,16.62
2019-03-29T15:44:27.230Z,14.80
2019-03-29T15:46:53.733Z,16.50
2019-03-29T15:49:20.133Z,15.08
2019-03-29T15:51:49.616Z,16.90
2019-03-29T15:54:16.072Z,18.23
2019-03-29T15:56:46.545Z,16.15
2019-03-29T15:59:13.433Z,17.62
2019-03-29T16:01:49.128Z,15.30
2019-03-29T16:04:26.772Z,15.60
2019-03-29T16:07:02.636Z,18.30
2019-03-29T16:09:29.134Z,19.15
2019-03-29T16:11:55.784Z,20.27
2019-03-29T16:14:22.254Z,18.48
2019-03-29T16:16:57.179Z,17.87
2019-03-29T16:19:23.547Z,18.55
2019-03-29T16:21:56.433Z,18.80
2019-03-29T16:24:23.466Z,23.40
2019-03-29T16:26:51.148Z,20.77
2019-03-29T16:29:18.218Z,20.52
2019-03-29T16:31:47.872Z,22.30
2019-03-29T16:34:14.976Z,19.57
2019-03-29T16:36:41.807Z,19.27
2019-03-29T16:39:10.302Z,19.57
2019-03-29T16:41:37.821Z,17.37
2019-03-29T16:44:04.882Z,14.55
2019-03-29T16:46:32.833Z,12.10
2019-03-29T16:49:00.133Z,11.48
2019-03-29T16:51:34.696Z,10.05
2019-03-29T16:54:05.666Z,9.55
2019-03-29T16:56:38.024Z,11.97
2019-03-29T16:59:05.277Z,9.83
2019-03-29T17:01:31.690Z,11.48
2019-03-29T17:04:04.148Z,10.63
2019-03-29T17:06:33.616Z,11.48
2019-03-29T17:09:00.166Z,10.75
2019-03-29T17:11:32.618Z,10.70
2019-03-29T17:13:59.017Z,11.45
2019-03-29T17:16:30.646Z,10.25
2019-03-29T17:18:53.450Z,10.82
2019-03-29T17:21:21.941Z,11.60
2019-03-29T17:23:52.706Z,8.75
2019-03-29T17:26:19.487Z,8.78
2019-03-29T17:28:46.460Z,9.30
2019-03-29T17:31:16.773Z,11.03
2019-03-29T17:33:43.111Z,9.40
2019-03-29T17:36:12.144Z,8.23
2019-03-29T17:38:38.923Z,9.28
2019-03-29T17:41:07.921Z,12.60
2019-03-29T17:43:34.672Z,9.08
2019-03-29T17:46:15.217Z,13.58
2019-03-29T17:48:31.279Z,10.78
2019-03-29T17:51:03.623Z,9.23
2019-03-29T17:53:29.843Z,11.53
2019-03-29T17:55:57.214Z,10.82
2019-03-29T17:58:23.511Z,10.65
2019-03-29T18:00:54.774Z,16.10
2019-03-29T18:03:25.903Z,17.15
2019-03-29T18:06:00.703Z,12.53
2019-03-29T18:08:28.690Z,14.83
2019-03-29T18:10:58.375Z,12.30
2019-03-29T18:13:27.507Z,11.00
2019-03-29T18:15:57.202Z,13.43
2019-03-29T18:18:23.659Z,11.70
2019-03-29T18:20:50.091Z,10.30
2019-03-29T18:23:16.447Z,14.75
2019-03-29T18:25:42.743Z,9.23
2019-03-29T18:28:10.048Z,9.95
2019-03-29T18:30:38.174Z,11.45
2019-03-29T18:33:05.131Z,14.65
2019-03-29T18:35:31.822Z,13.40
2019-03-29T18:37:58.191Z,14.10
2019-03-29T18:40:30.630Z,17.65
2019-03-29T18:42:57.276Z,14.90
2019-03-29T18:45:24.437Z,14.10
2019-03-29T18:47:52.645Z,14.98
2019-03-29T18:50:19.101Z,13.28
2019-03-29T18:52:45.479Z,16.52
2019-03-29T18:55:12.243Z,19.23
2019-03-29T18:57:38.550Z,14.50
2019-03-29T19:00:06.472Z,17.45
2019-03-29T19:02:45.035Z,16.77
2019-03-29T19:05:23.105Z,13.62
2019-03-29T19:07:50.476Z,12.73
2019-03-29T19:10:26.759Z,16.02
2019-03-29T19:12:55.375Z,16.90
2019-03-29T19:15:21.674Z,13.70
2019-03-29T19:17:47.904Z,13.22
2019-03-29T19:20:26.736Z,14.65
2019-03-29T19:22:43.319Z,15.03
2019-03-29T19:25:09.641Z,13.70
2019-03-29T19:27:35.884Z,14.65
2019-03-29T19:30:09.290Z,14.60
2019-03-29T19:32:41.646Z,14.75
2019-03-29T19:35:11.133Z,14.30
2019-03-29T19:37:37.431Z,20.75
2019-03-29T19:40:04.982Z,14.55
2019-03-29T19:42:31.790Z,15.45
2019-03-29T19:44:58.076Z,13.95
2019-03-29T19:47:24.441Z,14.83
2019-03-29T19:49:55.306Z,16.15
2019-03-29T19:52:21.001Z,16.17
2019-03-29T19:54:47.385Z,18.85
2019-03-29T19:57:16.695Z,18.75
2019-03-29T19:59:48.180Z,13.95
2019-03-29T20:02:14.412Z,20.75
2019-03-29T20:04:40.719Z,17.80
2019-03-29T20:07:07.193Z,14.15
2019-03-29T20:09:33.477Z,14.95
2019-03-29T20:11:59.791Z,17.98
2019-03-29T20:14:26.666Z,14.18
2019-03-29T20:16:55.228Z,16.48
2019-03-29T20:19:21.059Z,15.30
2019-03-29T20:21:47.436Z,15.30
2019-03-29T20:24:13.798Z,19.35
2019-03-29T20:26:40.080Z,14.38
2019-03-29T20:29:09.381Z,18.60
2019-03-29T20:31:35.688Z,18.60
2019-03-29T20:34:01.982Z,20.92
2019-03-29T20:36:28.282Z,15.63
2019-03-29T20:38:54.591Z,19.95
2019-03-29T20:41:20.863Z,13.68
2019-03-29T20:43:47.441Z,17.48
2019-03-29T20:46:16.981Z,18.37
2019-03-29T20:48:43.380Z,18.02
2019-03-29T20:51:09.891Z,18.25
2019-03-29T20:53:36.341Z,24.60
2019-03-29T20:56:02.694Z,20.95
2019-03-29T20:58:29.090Z,20.10
2019-03-29T21:00:55.401Z,24.60
2019-03-29T21:03:21.663Z,21.30
2019-03-29T21:05:47.931Z,18.15
2019-03-29T21:08:14.526Z,19.30
2019-03-29T21:10:54.551Z,23.25
2019-03-29T21:13:09.003Z,19.12
2019-03-29T21:15:35.361Z,19.32
2019-03-29T21:18:01.703Z,19.37
2019-03-29T21:20:28.155Z,19.35
2019-03-29T21:22:54.485Z,18.45
2019-03-29T21:25:24.972Z,17.95
2019-03-29T21:27:51.303Z,20.65
2019-03-29T21:30:17.681Z,21.82
2019-03-29T21:32:45.914Z,20.10
2019-03-29T21:35:12.383Z,17.57
2019-03-29T21:37:38.790Z,18.42
2019-03-29T21:40:05.945Z,19.37
2019-03-29T21:42:32.239Z,24.05
2019-03-29T21:44:58.543Z,25.48
2019-03-29T21:47:24.834Z,20.05
2019-03-29T21:49:51.537Z,19.07
2019-03-29T21:52:17.806Z,20.12
2019-03-29T21:54:44.109Z,18.95
2019-03-29T21:57:10.369Z,19.45
2019-03-29T21:59:39.325Z,17.05
2019-03-29T22:02:05.619Z,16.30
2019-03-29T22:04:31.911Z,22.37
2019-03-29T22:07:01.386Z,18.65
2019-03-29T22:09:36.864Z,22.47
2019-03-29T22:11:55.810Z,22.63
2019-03-29T22:14:22.106Z,23.55
2019-03-29T22:16:48.368Z,26.57
2019-03-29T22:19:15.646Z,25.13
2019-03-29T22:21:42.055Z,25.03
2019-03-29T22:24:11.318Z,23.23
2019-03-29T22:26:37.654Z,22.33
2019-03-29T22:29:03.965Z,24.73
2019-03-29T22:31:30.343Z,21.17
2019-03-29T22:33:56.734Z,20.80
2019-03-29T22:36:23.016Z,21.50
2019-03-29T22:38:49.290Z,23.80
2019-03-29T22:41:15.639Z,23.43
2019-03-29T22:43:41.954Z,20.97
2019-03-29T22:46:08.214Z,26.13
2019-03-29T22:48:34.740Z,21.43
2019-03-29T22:51:01.049Z,28.03
2019-03-29T22:53:33.146Z,24.07
2019-03-29T22:55:59.478Z,21.70
2019-03-29T22:58:29.270Z,24.03
2019-03-29T23:00:55.777Z,28.03
2019-03-29T23:03:22.328Z,25.50
2019-03-29T23:05:48.574Z,24.60
2019-03-29T23:08:15.993Z,27.17
2019-03-29T23:10:42.500Z,27.00
2019-03-29T23:13:09.003Z,35.90
2019-03-29T23:15:35.282Z,26.00
2019-03-29T23:18:01.702Z,28.53
2019-03-29T23:20:28.210Z,25.63
2019-03-29T23:22:54.557Z,24.60
2019-03-29T23:25:20.956Z,27.50
2019-03-29T23:27:47.254Z,25.03
2019-03-29T23:30:13.616Z,22.53
2019-03-29T23:32:48.784Z,26.07
2019-03-29T23:35:15.186Z,26.17
2019-03-29T23:37:41.508Z,26.93
2019-03-29T23:40:07.796Z,24.67
2019-03-29T23:42:34.078Z,29.03
2019-03-29T23:45:00.342Z,23.60
2019-03-29T23:47:29.609Z,26.90
2019-03-29T23:49:55.999Z,24.97
2019-03-29T23:52:22.375Z,24.47
2019-03-29T23:54:48.688Z,26.80
2019-03-29T23:57:15.010Z,26.27
2019-03-29T23:59:41.308Z,28.73
